createdAt,value
2022-07-29T00:00:01.467Z,23.75
2022-07-29T00:02:29.096Z,21.63
2022-07-29T00:04:56.167Z,24.08
2022-07-29T00:07:23.098Z,19.25
2022-07-29T00:09:51.001Z,21.98
2022-07-29T00:12:25.496Z,20.73
2022-07-29T00:17:24.860Z,19.85
2022-07-29T00:19:52.380Z,18.35
2022-07-29T00:22:21.093Z,22.83
2022-07-29T00:24:51.066Z,20.88
2022-07-29T00:27:18.460Z,24.60
2022-07-29T00:29:45.711Z,20.95
2022-07-29T00:32:13.119Z,18.83
2022-07-29T00:34:59.029Z,19.77
2022-07-29T00:37:26.016Z,22.55
2022-07-29T00:39:53.118Z,23.88
2022-07-29T00:42:20.362Z,22.92
2022-07-29T00:44:47.268Z,18.20
2022-07-29T00:47:14.278Z,22.65
2022-07-29T00:49:42.885Z,21.13
2022-07-29T00:52:11.532Z,21.30
2022-07-29T00:54:44.442Z,20.65
2022-07-29T00:57:12.842Z,21.30
2022-07-29T00:59:40.126Z,20.20
2022-07-29T01:02:07.075Z,30.05
2022-07-29T01:04:34.861Z,23.92
2022-07-29T01:07:05.468Z,24.38
2022-07-29T01:09:45.774Z,22.05
2022-07-29T01:12:17.933Z,27.15
2022-07-29T01:14:45.949Z,32.25
2022-07-29T01:17:52.592Z,25.05
2022-07-29T01:20:32.897Z,21.88
2022-07-29T01:23:24.553Z,27.23
2022-07-29T01:26:29.430Z,23.38
2022-07-29T01:31:59.301Z,22.25
2022-07-29T01:34:55.800Z,21.27
2022-07-29T01:39:58.498Z,21.23
2022-07-29T01:42:45.178Z,24.08
2022-07-29T01:45:17.951Z,21.60
2022-07-29T01:47:54.293Z,20.02
2022-07-29T01:50:27.759Z,20.33
2022-07-29T01:52:59.990Z,23.10
2022-07-29T01:55:32.364Z,31.25
2022-07-29T01:58:02.225Z,21.98
2022-07-29T02:00:33.161Z,16.90
2022-07-29T02:03:08.605Z,15.73
2022-07-29T02:05:39.167Z,18.85
2022-07-29T02:08:08.088Z,21.58
2022-07-29T02:10:37.050Z,19.50
2022-07-29T02:13:05.388Z,20.38
2022-07-29T02:15:35.415Z,18.73
2022-07-29T02:18:10.671Z,19.40
2022-07-29T02:20:41.143Z,21.95
2022-07-29T02:23:11.254Z,20.20
2022-07-29T02:25:38.705Z,15.48
2022-07-29T02:28:08.639Z,14.95
2022-07-29T02:30:40.156Z,16.20
2022-07-29T02:33:08.901Z,15.40
2022-07-29T02:35:35.929Z,18.92
2022-07-29T02:38:22.925Z,18.02
2022-07-29T02:40:51.932Z,18.80
2022-07-29T02:43:21.256Z,17.75
2022-07-29T02:45:52.741Z,19.00
2022-07-29T02:48:24.426Z,19.83
2022-07-29T02:51:00.681Z,22.58
2022-07-29T02:53:29.057Z,18.23
2022-07-29T02:56:09.110Z,17.13
2022-07-29T02:58:41.658Z,16.70
2022-07-29T03:01:21.658Z,15.05
2022-07-29T03:03:50.622Z,13.43
2022-07-29T03:06:28.726Z,19.65
2022-07-29T03:09:12.603Z,17.38
2022-07-29T03:11:45.899Z,13.63
2022-07-29T03:14:20.478Z,16.42
2022-07-29T03:16:48.703Z,16.50
2022-07-29T03:19:16.118Z,13.45
2022-07-29T03:21:42.998Z,13.48
2022-07-29T03:24:11.216Z,11.43
2022-07-29T03:26:38.622Z,8.95
2022-07-29T03:29:05.590Z,9.82
2022-07-29T03:31:33.576Z,9.00
2022-07-29T03:34:00.680Z,10.98
2022-07-29T03:36:28.034Z,11.63
2022-07-29T03:38:55.679Z,10.32
2022-07-29T03:41:25.661Z,13.20
2022-07-29T03:43:53.019Z,10.10
2022-07-29T03:46:24.536Z,10.02
2022-07-29T03:48:57.611Z,10.77
2022-07-29T03:51:33.162Z,8.68
2022-07-29T03:54:09.695Z,12.02
2022-07-29T03:56:41.143Z,15.60
2022-07-29T03:59:09.047Z,7.55
2022-07-29T04:01:37.643Z,8.30
2022-07-29T04:04:05.765Z,7.22
2022-07-29T04:06:42.915Z,8.60
2022-07-29T04:09:11.108Z,8.60
2022-07-29T04:11:59.169Z,10.40
2022-07-29T04:14:27.475Z,7.95
2022-07-29T04:16:54.382Z,10.43
2022-07-29T04:19:21.557Z,11.18
2022-07-29T04:21:48.377Z,7.57
2022-07-29T04:24:15.786Z,10.32
2022-07-29T04:26:43.631Z,16.88
2022-07-29T04:29:10.584Z,8.75
2022-07-29T04:31:38.050Z,7.53
2022-07-29T04:34:05.101Z,13.80
2022-07-29T04:36:32.332Z,10.35
2022-07-29T04:38:59.573Z,13.02
2022-07-29T04:41:32.755Z,7.32
2022-07-29T04:46:29.327Z,7.53
2022-07-29T04:48:56.433Z,11.75
2022-07-29T04:51:23.318Z,8.18
2022-07-29T04:53:50.090Z,10.23
2022-07-29T04:56:16.862Z,10.43
2022-07-29T04:58:43.746Z,7.88
2022-07-29T05:01:10.750Z,6.57
2022-07-29T05:03:37.626Z,8.85
2022-07-29T05:06:04.521Z,6.13
2022-07-29T05:08:31.353Z,13.60
2022-07-29T05:10:58.160Z,12.73
2022-07-29T05:13:45.898Z,7.75
2022-07-29T05:16:14.370Z,9.25
2022-07-29T05:18:41.837Z,11.18
2022-07-29T05:21:08.640Z,10.57
2022-07-29T05:23:35.457Z,12.98
2022-07-29T05:26:02.806Z,13.65
2022-07-29T05:28:29.695Z,9.70
2022-07-29T05:30:57.296Z,15.60
2022-07-29T05:33:34.246Z,12.50
2022-07-29T05:36:03.360Z,7.38
2022-07-29T05:38:30.175Z,9.52
2022-07-29T05:41:00.883Z,10.27
2022-07-29T05:43:29.440Z,9.70
2022-07-29T05:45:57.260Z,9.13
2022-07-29T05:48:27.957Z,11.18
2022-07-29T05:50:55.668Z,6.40
2022-07-29T05:53:22.964Z,10.77
2022-07-29T05:55:50.954Z,6.20
2022-07-29T05:58:17.879Z,6.82
2022-07-29T06:00:44.997Z,9.05
2022-07-29T06:03:12.346Z,8.35
2022-07-29T06:05:39.136Z,9.35
2022-07-29T06:08:09.103Z,5.35
2022-07-29T06:10:36.619Z,6.00
2022-07-29T06:13:04.003Z,5.30
2022-07-29T06:15:30.806Z,6.38
2022-07-29T06:17:59.043Z,12.00
2022-07-29T06:20:31.868Z,7.90
2022-07-29T06:22:59.976Z,6.80
2022-07-29T06:25:30.274Z,5.93
2022-07-29T06:27:58.056Z,8.10
2022-07-29T06:30:25.126Z,9.52
2022-07-29T06:32:52.259Z,7.53
2022-07-29T06:35:40.956Z,8.00
2022-07-29T06:38:16.006Z,7.10
2022-07-29T06:41:06.889Z,9.40
2022-07-29T06:43:51.785Z,10.48
2022-07-29T06:46:23.133Z,5.70
2022-07-29T06:48:50.875Z,9.82
2022-07-29T06:51:22.274Z,12.13
2022-07-29T06:54:00.422Z,5.00
2022-07-29T06:56:39.625Z,5.28
2022-07-29T06:59:11.945Z,6.35
2022-07-29T07:01:40.960Z,6.57
2022-07-29T07:04:09.810Z,5.13
2022-07-29T07:06:37.270Z,15.05
2022-07-29T07:09:04.664Z,11.48
2022-07-29T07:11:31.699Z,4.95
2022-07-29T07:14:03.096Z,4.50
2022-07-29T07:16:30.769Z,8.15
2022-07-29T07:18:57.732Z,5.15
2022-07-29T07:21:24.553Z,10.68
2022-07-29T07:23:51.364Z,8.57
2022-07-29T07:26:18.164Z,7.18
2022-07-29T07:28:45.012Z,7.03
2022-07-29T07:31:12.384Z,6.53
2022-07-29T07:33:39.537Z,8.95
2022-07-29T07:36:06.381Z,3.42
2022-07-29T07:38:33.389Z,6.80
2022-07-29T07:41:00.323Z,10.32
2022-07-29T07:43:27.129Z,4.30
2022-07-29T07:45:54.074Z,6.93
2022-07-29T07:48:21.505Z,6.72
2022-07-29T07:50:50.377Z,3.58
2022-07-29T07:53:17.726Z,7.90
2022-07-29T07:56:10.485Z,4.15
2022-07-29T07:58:32.227Z,6.55
2022-07-29T08:00:59.158Z,5.05
2022-07-29T08:03:26.118Z,5.72
2022-07-29T08:05:53.108Z,3.58
2022-07-29T08:08:19.953Z,4.63
2022-07-29T08:10:53.037Z,7.43
2022-07-29T08:13:22.116Z,3.17
2022-07-29T08:15:58.896Z,7.15
2022-07-29T08:18:27.665Z,3.20
2022-07-29T08:20:55.173Z,3.38
2022-07-29T08:23:23.775Z,2.95
2022-07-29T08:25:52.337Z,6.45
2022-07-29T08:28:22.115Z,3.72
2022-07-29T08:30:53.279Z,3.25
2022-07-29T08:33:20.169Z,4.22
2022-07-29T08:35:47.140Z,3.50
2022-07-29T08:38:14.007Z,3.80
2022-07-29T08:40:41.128Z,3.47
2022-07-29T08:43:09.599Z,5.63
2022-07-29T08:45:47.736Z,8.20
2022-07-29T08:48:23.684Z,4.38
2022-07-29T08:50:55.700Z,4.57
2022-07-29T08:53:27.451Z,5.97
2022-07-29T08:55:54.633Z,5.13
2022-07-29T08:58:24.928Z,3.72
2022-07-29T09:00:56.250Z,14.00
2022-07-29T09:03:30.582Z,5.10
2022-07-29T09:05:58.832Z,4.18
2022-07-29T09:08:26.451Z,4.13
2022-07-29T09:10:53.567Z,3.88
2022-07-29T09:13:20.460Z,8.30
2022-07-29T09:15:47.278Z,3.80
2022-07-29T09:18:35.851Z,3.83
2022-07-29T09:21:22.374Z,3.65
2022-07-29T09:24:09.516Z,5.97
2022-07-29T09:26:47.298Z,2.60
2022-07-29T09:29:17.599Z,2.08
2022-07-29T09:31:47.791Z,3.25
2022-07-29T09:34:17.429Z,8.23
2022-07-29T09:36:47.055Z,12.93
2022-07-29T09:39:15.664Z,2.22
2022-07-29T09:41:55.170Z,4.00
2022-07-29T09:44:24.042Z,4.15
2022-07-29T09:46:59.817Z,2.70
2022-07-29T09:49:27.434Z,3.28
2022-07-29T09:52:04.419Z,5.70
2022-07-29T09:54:37.659Z,1.90
2022-07-29T09:57:13.658Z,5.72
2022-07-29T09:59:50.142Z,9.77
2022-07-29T10:02:23.507Z,2.58
2022-07-29T10:04:50.970Z,5.13
2022-07-29T10:07:17.763Z,5.32
2022-07-29T10:09:55.999Z,3.15
2022-07-29T10:12:24.270Z,5.22
2022-07-29T10:14:52.718Z,4.32
2022-07-29T10:17:20.292Z,9.30
2022-07-29T10:19:48.255Z,2.17
2022-07-29T10:22:26.326Z,2.47
2022-07-29T10:25:02.757Z,4.93
2022-07-29T10:27:32.967Z,3.28
2022-07-29T10:29:59.933Z,3.35
2022-07-29T10:32:40.093Z,6.82
2022-07-29T10:35:19.087Z,3.63
2022-07-29T10:37:58.708Z,2.92
2022-07-29T10:41:12.399Z,5.57
2022-07-29T10:43:51.442Z,4.55
2022-07-29T10:46:19.578Z,10.35
2022-07-29T10:49:19.860Z,12.07
2022-07-29T10:52:06.165Z,6.00
2022-07-29T10:54:42.324Z,14.70
2022-07-29T10:57:53.324Z,10.65
2022-07-29T11:00:16.876Z,4.03
2022-07-29T11:02:45.978Z,3.55
2022-07-29T11:05:18.878Z,5.75
2022-07-29T11:11:29.688Z,4.70
2022-07-29T11:13:57.241Z,6.72
2022-07-29T11:16:25.002Z,3.10
2022-07-29T11:19:14.249Z,3.38
2022-07-29T11:21:55.127Z,5.57
2022-07-29T11:24:33.307Z,6.15
2022-07-29T11:27:13.447Z,5.53
2022-07-29T11:29:43.112Z,5.97
2022-07-29T11:32:15.709Z,6.15
2022-07-29T11:34:45.352Z,3.83
2022-07-29T11:37:13.707Z,4.53
2022-07-29T11:39:47.591Z,3.17
2022-07-29T11:42:32.138Z,3.50
2022-07-29T11:48:29.247Z,5.28
2022-07-29T11:50:54.173Z,3.03
2022-07-29T11:53:21.794Z,4.30
2022-07-29T11:55:56.366Z,5.22
2022-07-29T11:58:26.281Z,3.67
2022-07-29T12:00:55.508Z,9.50
2022-07-29T12:03:33.562Z,6.05
2022-07-29T12:06:02.672Z,4.18
2022-07-29T12:08:30.624Z,5.53
2022-07-29T12:10:58.440Z,5.05
2022-07-29T12:13:37.833Z,3.40
2022-07-29T12:16:05.795Z,3.70
2022-07-29T12:18:32.861Z,9.52
2022-07-29T12:21:04.990Z,7.32
2022-07-29T12:23:34.802Z,6.07
2022-07-29T12:26:07.510Z,3.80
2022-07-29T12:28:39.797Z,4.95
2022-07-29T12:31:14.045Z,3.47
2022-07-29T12:33:41.240Z,3.88
2022-07-29T12:36:14.285Z,6.15
2022-07-29T12:38:45.644Z,4.15
2022-07-29T12:41:12.730Z,4.68
2022-07-29T12:43:53.295Z,3.40
2022-07-29T12:46:20.166Z,3.67
2022-07-29T12:48:52.170Z,3.60
2022-07-29T12:51:18.922Z,7.20
2022-07-29T12:54:14.344Z,3.85
2022-07-29T12:56:44.343Z,6.43
2022-07-29T12:59:14.609Z,7.55
2022-07-29T13:01:41.504Z,4.68
2022-07-29T13:04:08.534Z,4.10
2022-07-29T13:06:45.944Z,5.45
2022-07-29T13:09:23.504Z,5.75
2022-07-29T13:11:54.573Z,3.20
2022-07-29T13:14:39.025Z,5.50
2022-07-29T13:17:11.719Z,6.15
2022-07-29T13:19:46.732Z,15.02
2022-07-29T13:22:22.231Z,5.90
2022-07-29T13:24:53.043Z,3.42
2022-07-29T13:27:21.734Z,4.70
2022-07-29T13:29:50.647Z,3.33
2022-07-29T13:32:17.899Z,3.50
2022-07-29T13:34:44.794Z,4.28
2022-07-29T13:37:12.140Z,3.45
2022-07-29T13:39:39.103Z,5.28
2022-07-29T13:42:10.752Z,4.68
2022-07-29T13:44:38.262Z,4.88
2022-07-29T13:47:05.348Z,3.65
2022-07-29T13:49:32.289Z,4.45
2022-07-29T13:51:59.587Z,9.07
2022-07-29T13:54:26.799Z,18.75
2022-07-29T13:56:54.276Z,3.47
2022-07-29T13:59:21.306Z,3.97
2022-07-29T14:01:48.938Z,3.20
2022-07-29T14:04:16.466Z,11.52
2022-07-29T14:06:43.544Z,5.18
2022-07-29T14:09:10.644Z,4.03
2022-07-29T14:11:39.585Z,4.00
2022-07-29T14:14:06.730Z,3.13
2022-07-29T14:16:33.966Z,3.28
2022-07-29T14:19:01.269Z,5.22
2022-07-29T14:21:28.157Z,3.45
2022-07-29T14:23:55.676Z,5.40
2022-07-29T14:26:24.291Z,3.38
2022-07-29T14:28:51.409Z,3.75
2022-07-29T14:31:18.756Z,3.45
2022-07-29T14:33:46.212Z,4.25
2022-07-29T14:36:16.609Z,5.63
2022-07-29T14:38:43.479Z,6.63
2022-07-29T14:41:10.318Z,3.83
2022-07-29T14:43:37.155Z,5.32
2022-07-29T14:46:08.188Z,3.38
2022-07-29T14:48:36.040Z,3.75
2022-07-29T14:51:04.864Z,4.45
2022-07-29T14:53:32.806Z,4.00
2022-07-29T14:56:15.043Z,4.03
2022-07-29T14:58:51.784Z,4.80
2022-07-29T15:01:19.117Z,4.63
2022-07-29T15:03:46.882Z,6.30
2022-07-29T15:06:14.257Z,3.83
2022-07-29T15:08:41.141Z,4.00
2022-07-29T15:11:07.972Z,3.40
2022-07-29T15:13:35.100Z,3.95
2022-07-29T15:16:02.036Z,4.20
2022-07-29T15:18:28.912Z,5.35
2022-07-29T15:20:55.752Z,3.67
2022-07-29T15:23:22.544Z,5.97
2022-07-29T15:25:49.389Z,3.95
2022-07-29T15:28:16.435Z,10.60
2022-07-29T15:30:43.485Z,6.38
2022-07-29T15:33:10.813Z,5.72
2022-07-29T15:35:40.261Z,6.10
2022-07-29T15:38:08.495Z,4.53
2022-07-29T15:40:35.374Z,5.28
2022-07-29T15:43:06.746Z,4.90
2022-07-29T15:45:40.924Z,5.13
2022-07-29T15:48:14.582Z,3.47
2022-07-29T15:50:41.855Z,3.90
2022-07-29T15:53:08.652Z,3.55
2022-07-29T15:55:35.446Z,4.07
2022-07-29T15:58:02.230Z,4.63
2022-07-29T16:00:29.332Z,3.78
2022-07-29T16:02:56.107Z,5.03
2022-07-29T16:05:23.680Z,5.18
2022-07-29T16:07:50.458Z,6.47
2022-07-29T16:10:17.253Z,4.05
2022-07-29T16:12:44.011Z,3.97
2022-07-29T16:15:11.034Z,4.53
2022-07-29T16:17:39.283Z,9.48
2022-07-29T16:20:06.818Z,4.25
2022-07-29T16:22:33.602Z,3.80
2022-07-29T16:25:00.528Z,3.72
2022-07-29T16:27:37.525Z,4.03
2022-07-29T16:30:05.902Z,3.58
2022-07-29T16:32:32.680Z,3.88
2022-07-29T16:35:02.100Z,3.83
2022-07-29T16:37:35.498Z,3.47
2022-07-29T16:40:03.646Z,7.25
2022-07-29T16:42:46.025Z,4.70
2022-07-29T16:45:13.881Z,4.93
2022-07-29T16:47:40.891Z,6.45
2022-07-29T16:50:08.946Z,4.65
2022-07-29T16:52:37.563Z,3.83
2022-07-29T16:55:04.648Z,5.47
2022-07-29T16:57:31.460Z,4.78
2022-07-29T16:59:58.198Z,4.50
2022-07-29T17:02:25.117Z,5.00
2022-07-29T17:04:52.011Z,5.38
2022-07-29T17:07:19.165Z,8.43
2022-07-29T17:09:45.956Z,4.95
2022-07-29T17:12:12.828Z,13.85
2022-07-29T17:14:39.568Z,18.30
2022-07-29T17:17:12.273Z,9.27
2022-07-29T17:19:40.647Z,13.20
2022-07-29T17:22:13.056Z,16.63
2022-07-29T17:24:45.474Z,7.07
2022-07-29T17:27:12.811Z,6.28
2022-07-29T17:29:39.657Z,6.28
2022-07-29T17:32:07.937Z,10.32
2022-07-29T17:34:38.983Z,4.97
2022-07-29T17:37:07.553Z,5.55
2022-07-29T17:39:35.689Z,8.02
2022-07-29T17:42:04.032Z,10.55
2022-07-29T17:44:31.058Z,5.38
2022-07-29T17:46:59.783Z,4.45
2022-07-29T17:49:28.156Z,4.05
2022-07-29T17:51:58.964Z,5.55
2022-07-29T17:54:27.818Z,9.17
2022-07-29T17:56:54.596Z,5.38
2022-07-29T17:59:22.623Z,6.90
2022-07-29T18:01:49.539Z,5.38
2022-07-29T18:04:20.238Z,5.15
2022-07-29T18:06:47.355Z,7.07
2022-07-29T18:09:14.342Z,7.20
2022-07-29T18:11:44.438Z,10.60
2022-07-29T18:14:12.798Z,11.60
2022-07-29T18:16:39.701Z,8.85
2022-07-29T18:19:07.069Z,14.48
2022-07-29T18:21:41.120Z,7.35
2022-07-29T18:24:22.785Z,8.93
2022-07-29T18:26:49.668Z,10.75
2022-07-29T18:29:16.634Z,5.47
2022-07-29T18:31:43.429Z,9.90
2022-07-29T18:34:10.249Z,14.35
2022-07-29T18:36:37.136Z,12.82
2022-07-29T18:39:04.247Z,6.57
2022-07-29T18:41:31.476Z,7.25
2022-07-29T18:43:58.347Z,7.72
2022-07-29T18:46:25.538Z,45.85
2022-07-29T18:48:52.565Z,11.32
2022-07-29T18:51:19.528Z,13.05
2022-07-29T18:53:46.356Z,10.52
2022-07-29T18:56:13.385Z,8.70
2022-07-29T18:58:40.221Z,6.53
2022-07-29T19:01:07.116Z,10.70
2022-07-29T19:03:33.927Z,12.68
2022-07-29T19:06:01.121Z,9.48
2022-07-29T19:08:27.949Z,6.95
2022-07-29T19:10:54.774Z,11.80
2022-07-29T19:13:21.664Z,8.25
2022-07-29T19:15:48.635Z,6.45
2022-07-29T19:18:15.501Z,7.55
2022-07-29T19:20:42.395Z,6.25
2022-07-29T19:23:09.384Z,8.02
2022-07-29T19:25:37.453Z,7.40
2022-07-29T19:28:20.305Z,8.23
2022-07-29T19:30:47.219Z,4.90
2022-07-29T19:33:17.435Z,6.80
2022-07-29T19:35:45.305Z,9.82
2022-07-29T19:38:13.020Z,5.78
2022-07-29T19:40:40.572Z,5.38
2022-07-29T19:43:49.747Z,11.70
2022-07-29T19:45:54.434Z,8.02
2022-07-29T19:48:21.372Z,5.20
2022-07-29T19:50:48.194Z,6.10
2022-07-29T19:53:15.307Z,9.20
2022-07-29T19:55:42.555Z,8.57
2022-07-29T19:58:09.402Z,5.18
2022-07-29T20:00:36.614Z,6.75
2022-07-29T20:03:06.981Z,5.95
2022-07-29T20:05:34.100Z,7.00
2022-07-29T20:08:04.941Z,7.10
2022-07-29T20:10:32.726Z,4.80
2022-07-29T20:12:59.651Z,7.05
2022-07-29T20:15:26.724Z,6.78
2022-07-29T20:17:57.125Z,6.90
2022-07-29T20:20:25.371Z,6.95
2022-07-29T20:22:53.684Z,6.13
2022-07-29T20:25:20.601Z,6.00
2022-07-29T20:27:49.691Z,5.10
2022-07-29T20:30:16.606Z,5.85
2022-07-29T20:32:44.940Z,5.85
2022-07-29T20:35:13.412Z,6.50
2022-07-29T20:37:52.175Z,7.95
2022-07-29T20:40:25.324Z,4.55
2022-07-29T20:42:52.878Z,11.15
2022-07-29T20:45:20.186Z,15.80
2022-07-29T20:47:47.147Z,8.13
2022-07-29T20:50:14.219Z,6.40
2022-07-29T20:52:41.416Z,5.50
2022-07-29T20:55:09.095Z,5.82
2022-07-29T20:57:39.178Z,6.95
2022-07-29T21:00:07.447Z,4.43
2022-07-29T21:02:34.595Z,5.35
2022-07-29T21:05:01.484Z,8.27
2022-07-29T21:07:28.337Z,4.88
2022-07-29T21:09:55.144Z,7.65
2022-07-29T21:12:22.679Z,4.75
2022-07-29T21:14:49.854Z,13.93
2022-07-29T21:17:18.747Z,5.43
2022-07-29T21:19:48.318Z,8.32
2022-07-29T21:22:16.164Z,5.78
2022-07-29T21:24:44.975Z,5.38
2022-07-29T21:27:30.433Z,5.57
2022-07-29T21:29:57.275Z,5.85
2022-07-29T21:32:29.949Z,6.00
2022-07-29T21:34:58.088Z,4.70
2022-07-29T21:37:25.333Z,3.08
2022-07-29T21:39:52.122Z,8.23
2022-07-29T21:42:19.332Z,6.75
2022-07-29T21:44:46.294Z,5.88
2022-07-29T21:47:13.125Z,4.55
2022-07-29T21:49:40.009Z,5.03
2022-07-29T21:52:08.172Z,6.28
2022-07-29T21:54:36.854Z,5.00
2022-07-29T21:57:04.821Z,6.00
2022-07-29T21:59:31.999Z,4.63
2022-07-29T22:02:01.174Z,4.20
2022-07-29T22:04:29.112Z,9.20
2022-07-29T22:06:57.131Z,7.55
2022-07-29T22:09:25.177Z,9.00
2022-07-29T22:11:52.035Z,7.28
2022-07-29T22:14:18.846Z,7.25
2022-07-29T22:16:47.249Z,7.50
2022-07-29T22:19:14.506Z,4.85
2022-07-29T22:21:42.370Z,5.30
2022-07-29T22:24:10.443Z,5.28
2022-07-29T22:26:38.304Z,11.95
2022-07-29T22:29:05.381Z,4.88
2022-07-29T22:31:32.207Z,5.40
2022-07-29T22:33:59.199Z,6.80
2022-07-29T22:36:26.527Z,7.70
2022-07-29T22:38:53.359Z,6.07
2022-07-29T22:41:21.287Z,35.17
2022-07-29T22:43:48.356Z,5.07
2022-07-29T22:46:15.317Z,8.73
2022-07-29T22:48:42.671Z,6.85
2022-07-29T22:51:09.639Z,5.78
2022-07-29T22:53:37.017Z,10.57
2022-07-29T22:56:04.155Z,4.68
2022-07-29T22:58:31.017Z,6.22
2022-07-29T23:00:57.948Z,7.10
2022-07-29T23:03:25.039Z,10.63
2022-07-29T23:05:51.996Z,8.65
2022-07-29T23:08:20.223Z,8.95
2022-07-29T23:10:47.618Z,8.23
2022-07-29T23:13:14.779Z,5.55
2022-07-29T23:15:42.103Z,4.57
2022-07-29T23:18:10.620Z,5.72
2022-07-29T23:20:37.485Z,8.98
2022-07-29T23:23:04.596Z,8.52
2022-07-29T23:25:31.518Z,4.20
2022-07-29T23:27:58.380Z,7.28
2022-07-29T23:30:25.622Z,6.88
2022-07-29T23:32:52.680Z,8.98
2022-07-29T23:35:19.899Z,7.68
2022-07-29T23:37:46.865Z,5.13
2022-07-29T23:40:15.052Z,8.82
2022-07-29T23:42:42.776Z,5.13
2022-07-29T23:45:11.362Z,7.10
2022-07-29T23:47:38.373Z,5.78
2022-07-29T23:50:06.958Z,12.10
2022-07-29T23:52:33.884Z,6.22
2022-07-29T23:55:36.331Z,7.00
2022-07-29T23:57:51.111Z,6.28
